Weather at Christus Spohn Hospital Memorial Heliport

Public forecast

Using degrees Fahrenheit for public forecast. Weather courtesy of forecast.io.

Closest aviation weather report (METAR) to Christus Spohn Hospital Memorial Heliport

Closest report is Corpus Christi International Airport, 4.6 nm (8.6 km) W. Retrieved 2021/01/25 12:51 UTC (51 minutes ago):

KCRP 251251Z 16008KT 9SM OVC023 21/20 A2967 RMK AO2 SLP046 T02110200

Closest aviation forecast (TAF) to Christus Spohn Hospital Memorial Heliport

Closest forecast is Corpus Christi International Airport, 4.6 nm (8.6 km) W. Retrieved 2021/01/25 12:27 UTC (1 hour ago):

TAF KCRP 251125Z 2512/2612 17012KT P6SM SCT012 OVC025 TEMPO 2512/2514 BKN012 OVC025 FM251500 21011KT P6SM BKN015 OVC025 FM251800 29011KT P6SM BKN025 OVC035 FM252000 35012KT P6SM BKN035 FM260000 04010KT P6SM SCT030 FM261000 05012KT P6SM BKN012 BKN060